createdAt,value
2018-03-04T16:31:25.222Z,54.60
2018-03-04T16:33:53.494Z,55.40
2018-03-04T16:36:21.007Z,55.30
2018-03-04T16:38:48.573Z,55.70
2018-03-04T16:41:16.114Z,55.00
2018-03-04T16:43:43.657Z,55.00
2018-03-04T16:46:11.197Z,54.90
2018-03-04T16:48:38.745Z,54.80
2018-03-04T16:51:06.279Z,54.80
2018-03-04T16:53:33.856Z,54.70
2018-03-04T16:56:02.168Z,54.70
2018-03-04T16:58:29.692Z,54.80
2018-03-04T17:00:57.273Z,54.70
2018-03-04T17:03:24.801Z,54.70
2018-03-04T17:05:52.335Z,54.80
2018-03-04T17:08:19.895Z,54.80
2018-03-04T17:10:47.408Z,54.80
2018-03-04T17:13:15.691Z,54.80
2018-03-04T17:15:44.007Z,54.80
2018-03-04T17:18:11.617Z,54.70
2018-03-04T17:20:39.238Z,57.60
2018-03-04T17:23:06.791Z,54.90
2018-03-04T17:25:34.358Z,55.00
2018-03-04T17:28:01.943Z,55.00
2018-03-04T17:30:29.568Z,54.90
2018-03-04T17:32:57.151Z,55.00
2018-03-04T17:35:24.686Z,54.90
2018-03-04T17:37:52.246Z,54.90
2018-03-04T17:40:19.824Z,55.00
2018-03-04T17:42:47.344Z,54.90
2018-03-04T17:45:15.687Z,55.00
2018-03-04T17:47:43.231Z,54.90
2018-03-04T17:50:10.777Z,54.90
2018-03-04T17:52:38.355Z,54.90
2018-03-04T17:55:05.877Z,54.90
2018-03-04T17:57:33.386Z,54.90
2018-03-04T18:00:00.939Z,54.90
2018-03-04T18:02:28.456Z,54.90
2018-03-04T18:04:56.033Z,54.90
2018-03-04T18:07:23.590Z,54.90
2018-03-04T18:09:51.121Z,54.80
2018-03-04T18:12:18.687Z,54.80
2018-03-04T18:14:46.222Z,54.80
2018-03-04T18:17:14.517Z,54.80
2018-03-04T18:19:42.840Z,54.80
2018-03-04T18:22:10.384Z,54.70
2018-03-04T18:24:37.901Z,54.80
2018-03-04T18:27:07.769Z,54.90
2018-03-04T18:29:36.332Z,54.80
2018-03-04T18:32:04.020Z,54.80
2018-03-04T18:34:31.563Z,54.80
2018-03-04T18:36:59.187Z,54.80
2018-03-04T18:39:27.495Z,55.00
2018-03-04T18:41:55.006Z,54.80
2018-03-04T18:44:22.591Z,55.00
2018-03-04T18:46:50.866Z,55.00
2018-03-04T18:49:19.145Z,54.90
2018-03-04T18:51:47.461Z,55.10
2018-03-04T18:54:15.006Z,54.90
2018-03-04T18:56:42.555Z,55.10
2018-03-04T18:59:10.101Z,55.10
2018-03-04T19:01:38.431Z,55.10
2018-03-04T19:04:05.990Z,55.00
2018-03-04T19:06:33.654Z,55.20
2018-03-04T19:09:01.176Z,55.10
2018-03-04T19:11:28.715Z,55.20
2018-03-04T19:13:57.100Z,55.20
2018-03-04T19:16:25.418Z,55.10
2018-03-04T19:18:52.933Z,55.10
2018-03-04T19:21:21.970Z,55.20
2018-03-04T19:23:50.494Z,55.20
2018-03-04T19:26:18.778Z,55.20
2018-03-04T19:28:46.389Z,55.20
2018-03-04T19:31:13.971Z,55.30
2018-03-04T19:33:41.504Z,55.30
2018-03-04T19:36:09.118Z,55.30
2018-03-04T19:38:37.488Z,55.40
2018-03-04T19:41:05.068Z,55.30
2018-03-04T19:43:32.679Z,55.40
2018-03-04T19:46:00.350Z,55.30
2018-03-04T19:48:27.932Z,55.40
2018-03-04T19:50:55.538Z,55.40
2018-03-04T19:53:23.068Z,55.30
2018-03-04T19:55:51.411Z,55.40
2018-03-04T19:58:19.011Z,55.30
2018-03-04T20:00:47.322Z,55.40
2018-03-04T20:03:14.867Z,55.30
2018-03-04T20:05:42.406Z,55.30
2018-03-04T20:08:10.734Z,55.30
2018-03-04T20:10:38.241Z,55.30
2018-03-04T20:13:06.566Z,55.30
2018-03-04T20:15:34.082Z,55.30
2018-03-04T20:18:02.414Z,55.30
2018-03-04T20:20:30.112Z,55.30
2018-03-04T20:22:57.600Z,55.40
2018-03-04T20:25:26.725Z,55.40
2018-03-04T20:27:55.891Z,55.40
2018-03-04T20:30:25.289Z,55.40
2018-03-04T20:32:53.586Z,55.40
2018-03-04T20:35:21.158Z,55.40
2018-03-04T20:37:48.737Z,55.50
2018-03-04T20:40:16.286Z,55.50
2018-03-04T20:42:43.899Z,55.50
2018-03-04T20:45:12.245Z,56.50
2018-03-04T20:47:39.799Z,56.50
2018-03-04T20:50:07.365Z,56.80
2018-03-04T20:52:34.894Z,60.70
2018-03-04T20:55:02.403Z,62.80
2018-03-04T20:57:30.722Z,63.10
2018-03-04T20:59:58.405Z,62.30
2018-03-04T21:02:25.958Z,62.00
2018-03-04T21:04:53.517Z,62.00
2018-03-04T21:07:21.832Z,62.20
2018-03-04T21:09:49.466Z,62.00
2018-03-04T21:12:17.029Z,62.70
2018-03-04T21:14:44.546Z,62.10
2018-03-04T21:17:12.103Z,62.00
2018-03-04T21:19:39.663Z,62.00
2018-03-04T21:22:07.201Z,62.00
2018-03-04T21:24:35.224Z,62.30
2018-03-04T21:27:02.750Z,62.40
2018-03-04T21:29:31.038Z,62.10
2018-03-04T21:31:58.583Z,62.10
2018-03-04T21:34:26.182Z,61.80
2018-03-04T21:36:53.774Z,62.20
2018-03-04T21:39:21.386Z,63.10
2018-03-04T21:41:48.950Z,62.40
2018-03-04T21:44:16.482Z,61.80
2018-03-04T21:46:44.084Z,62.20
2018-03-04T21:49:11.638Z,62.00
2018-03-04T21:51:39.197Z,61.90
2018-03-04T21:54:06.777Z,61.50
2018-03-04T21:56:34.335Z,62.10
2018-03-04T21:59:02.164Z,61.50
2018-03-04T22:01:29.704Z,61.70
2018-03-04T22:03:58.395Z,61.20
2018-03-04T22:06:26.771Z,61.30
2018-03-04T22:08:55.094Z,61.50
2018-03-04T22:11:22.651Z,61.40
2018-03-04T22:13:50.234Z,61.70
2018-03-04T22:16:17.737Z,62.10
2018-03-04T22:18:46.063Z,61.70
2018-03-04T22:21:13.578Z,61.80
2018-03-04T22:23:41.130Z,62.60
2018-03-04T22:26:09.496Z,62.50
2018-03-04T22:28:37.041Z,62.50
2018-03-04T22:31:04.618Z,62.40
2018-03-04T22:33:32.954Z,62.70
2018-03-04T22:36:00.499Z,62.70
2018-03-04T22:38:28.059Z,62.90
2018-03-04T22:40:55.678Z,62.40
2018-03-04T22:43:24.007Z,62.60
2018-03-04T22:45:51.542Z,62.50
2018-03-04T22:48:27.363Z,62.50
2018-03-04T22:50:58.458Z,62.20
2018-03-04T22:53:36.602Z,62.70
2018-03-04T22:56:04.130Z,62.60
2018-03-04T22:58:31.641Z,62.00
2018-03-04T23:00:59.937Z,62.50
2018-03-04T23:03:28.270Z,62.10
2018-03-04T23:05:55.791Z,62.00
2018-03-04T23:08:23.382Z,62.20
2018-03-04T23:10:50.958Z,62.20
2018-03-04T23:13:18.504Z,62.10
2018-03-04T23:15:46.058Z,62.40
2018-03-04T23:18:13.619Z,63.00
2018-03-04T23:20:41.201Z,62.80
2018-03-04T23:23:08.773Z,63.00
2018-03-04T23:25:36.275Z,62.20
2018-03-04T23:28:03.814Z,62.60
2018-03-04T23:30:31.359Z,62.90
2018-03-04T23:32:58.906Z,63.10
2018-03-04T23:35:26.472Z,63.00
2018-03-04T23:37:53.998Z,62.60
2018-03-04T23:40:21.536Z,62.80
2018-03-04T23:42:49.074Z,62.40
2018-03-04T23:45:16.716Z,61.70
2018-03-04T23:47:45.026Z,62.40
2018-03-04T23:50:12.573Z,62.30
2018-03-04T23:52:40.122Z,62.60
2018-03-04T23:55:07.721Z,62.20
2018-03-04T23:57:35.298Z,61.60
